Time;durP1;ratioP1;P1;durP2;ratioP2;P2;SDS_P1;SDS_P2;PMS_P1;PMS_P2;Temp;Humidity;BMP_temperature;BMP_pressure;BME280_temperature;BME280_humidity;BME280_pressure;Samples;Min_cycle;Max_cycle;Signal;HPM_P1;HPM_P2
2022/03/19 00:00:50;;;;;;;28.88;19.00;;;10.40;53.90;;;;;;5013215;28;20053;-83
2022/03/19 00:03:16;;;;;;;27.08;18.15;;;10.40;54.50;;;;;;5004542;28;20140;-83
2022/03/19 00:05:41;;;;;;;23.70;18.02;;;10.20;53.90;;;;;;5002838;28;20486;-84
2022/03/19 00:08:07;;;;;;;24.73;17.88;;;10.10;54.00;;;;;;4992541;28;20092;-84
2022/03/19 00:10:33;;;;;;;21.05;15.60;;;10.20;54.70;;;;;;5001866;28;20045;-83
2022/03/19 00:12:59;;;;;;;23.33;18.50;;;10.10;54.50;;;;;;5003129;28;20089;-83
2022/03/19 00:15:25;;;;;;;27.20;18.17;;;9.90;54.40;;;;;;5003363;28;20070;-84
2022/03/19 00:17:54;;;;;;;22.85;15.05;;;9.80;54.50;;;;;;4986045;28;20406;-83
2022/03/19 00:20:26;;;;;;;18.98;14.75;;;9.70;55.10;;;;;;4984699;28;20049;-83
2022/03/19 00:22:52;;;;;;;23.38;17.02;;;9.80;55.30;;;;;;5004678;28;20117;-81
2022/03/19 00:25:18;;;;;;;23.83;18.20;;;9.80;54.50;;;;;;4983115;28;20133;-82
2022/03/19 00:27:43;;;;;;;20.38;14.60;;;9.70;54.50;;;;;;5002104;28;20030;-81
2022/03/19 00:30:10;;;;;;;24.13;16.92;;;9.70;55.00;;;;;;4983297;28;20446;-81
2022/03/19 00:32:36;;;;;;;24.08;16.10;;;9.90;54.30;;;;;;4981057;28;20038;-81
2022/03/19 00:35:03;;;;;;;27.75;17.13;;;9.70;54.30;;;;;;5000187;28;20113;-81
2022/03/19 00:37:30;;;;;;;23.55;16.23;;;9.70;54.30;;;;;;4981507;28;20049;-82
2022/03/19 00:39:55;;;;;;;20.45;15.77;;;9.60;54.80;;;;;;4991843;28;20387;-81
2022/03/19 00:42:21;;;;;;;19.77;15.65;;;9.70;54.70;;;;;;4989469;28;20560;-83
2022/03/19 00:44:47;;;;;;;21.33;15.65;;;9.70;54.70;;;;;;4996791;28;20050;-83
2022/03/19 00:47:13;;;;;;;19.70;13.70;;;9.70;54.80;;;;;;4989523;28;20066;-83
2022/03/19 00:49:39;;;;;;;23.02;15.98;;;9.70;54.90;;;;;;5004498;28;20104;-83
2022/03/19 00:52:05;;;;;;;26.42;15.82;;;9.70;54.30;;;;;;4985228;28;20034;-84
2022/03/19 00:54:31;;;;;;;17.73;14.82;;;9.70;54.90;;;;;;4989095;28;20058;-88
2022/03/19 00:56:57;;;;;;;21.65;15.05;;;9.70;54.70;;;;;;5006196;28;20038;-87
2022/03/19 00:59:22;;;;;;;21.58;15.10;;;9.70;54.70;;;;;;4998258;28;20038;-87
2022/03/19 01:01:48;;;;;;;26.70;15.18;;;9.70;54.80;;;;;;5013142;28;20836;-86
2022/03/19 01:04:14;;;;;;;25.85;15.43;;;9.70;55.20;;;;;;5012071;28;20186;-86
2022/03/19 01:06:40;;;;;;;22.30;14.55;;;9.70;54.30;;;;;;5028024;28;20093;-86
2022/03/19 01:09:05;;;;;;;21.48;14.50;;;9.70;55.20;;;;;;5024006;28;20039;-85
2022/03/19 01:11:31;;;;;;;21.95;14.60;;;9.70;55.50;;;;;;5010601;28;20100;-91
2022/03/19 01:13:57;;;;;;;23.33;14.40;;;9.60;55.40;;;;;;5013065;28;20478;-90
2022/03/19 01:16:24;;;;;;;18.20;14.30;;;9.60;54.90;;;;;;4984495;28;20510;-91
2022/03/19 01:18:50;;;;;;;20.52;14.70;;;9.70;54.90;;;;;;5013764;28;20042;-91
2022/03/19 01:21:17;;;;;;;21.95;15.25;;;9.70;55.10;;;;;;5015805;28;20069;-90
2022/03/19 01:23:42;;;;;;;24.75;14.73;;;9.70;54.50;;;;;;5008844;28;20025;-90
2022/03/19 01:26:08;;;;;;;22.45;15.18;;;9.60;54.80;;;;;;4992712;28;20053;-89
2022/03/19 01:28:34;;;;;;;24.88;14.15;;;9.60;54.80;;;;;;5007176;28;20042;-91
2022/03/19 01:31:00;;;;;;;20.20;13.02;;;9.60;55.10;;;;;;5017958;28;20030;-91
2022/03/19 01:33:26;;;;;;;18.90;12.00;;;9.70;55.40;;;;;;5000102;28;20044;-91
2022/03/19 01:35:52;;;;;;;16.40;13.55;;;9.80;55.70;;;;;;4999399;28;20038;-91
2022/03/19 01:38:18;;;;;;;16.88;13.25;;;10.00;55.30;;;;;;5006854;28;20453;-91
2022/03/19 01:40:44;;;;;;;18.30;14.05;;;9.80;54.60;;;;;;4991409;28;20031;-91
2022/03/19 01:43:10;;;;;;;20.55;12.88;;;9.90;54.30;;;;;;5001184;28;20055;-90
2022/03/19 01:45:35;;;;;;;22.00;14.55;;;9.90;54.50;;;;;;5004154;28;20037;-89
2022/03/19 01:48:01;;;;;;;18.75;15.52;;;9.80;54.80;;;;;;5010510;28;20058;-89
2022/03/19 01:50:27;;;;;;;20.52;14.43;;;9.80;53.20;;;;;;4999769;28;20038;-87
2022/03/19 01:52:54;;;;;;;17.42;13.23;;;9.80;55.20;;;;;;5005023;28;20088;-89
2022/03/19 01:55:26;;;;;;;23.73;14.50;;;9.80;53.80;;;;;;5017230;28;20120;-89
2022/03/19 01:57:53;;;;;;;20.23;15.90;;;9.70;53.70;;;;;;4980041;28;20034;-89
2022/03/19 02:00:22;;;;;;;21.60;16.05;;;9.60;53.70;;;;;;4998306;28;20129;-89
2022/03/19 02:02:50;;;;;;;23.95;15.55;;;9.60;53.60;;;;;;5015945;28;20056;-85
2022/03/19 02:05:18;;;;;;;16.10;13.25;;;9.60;54.10;;;;;;5010116;28;20030;-83
2022/03/19 02:07:46;;;;;;;22.20;15.80;;;9.60;54.00;;;;;;5006239;28;20045;-82
2022/03/19 02:10:13;;;;;;;17.77;14.13;;;9.50;53.50;;;;;;5005316;28;20042;-83
2022/03/19 02:12:40;;;;;;;17.70;13.18;;;9.30;54.10;;;;;;5011968;28;20041;-83
2022/03/19 02:15:07;;;;;;;21.10;15.85;;;9.40;54.40;;;;;;4996913;28;20070;-85
2022/03/19 02:17:33;;;;;;;19.55;14.70;;;9.40;53.60;;;;;;4993066;28;20497;-84
2022/03/19 02:20:01;;;;;;;19.60;13.93;;;9.30;54.30;;;;;;5014383;28;20049;-83
2022/03/19 02:22:27;;;;;;;18.23;15.00;;;9.30;54.30;;;;;;4984285;28;20054;-85
2022/03/19 02:27:39;;;;;;;20.02;13.18;;;9.20;54.10;;;;;;5018022;28;20485;-86
2022/03/19 02:30:08;;;;;;;16.90;13.10;;;9.30;54.70;;;;;;5014061;28;20031;-87
2022/03/19 02:32:34;;;;;;;18.33;13.45;;;9.40;53.70;;;;;;5018484;28;20066;-87
2022/03/19 02:35:00;;;;;;;16.75;13.77;;;9.60;53.30;;;;;;5012989;28;20039;-86
2022/03/19 02:37:26;;;;;;;19.00;14.95;;;9.60;53.20;;;;;;4993218;28;20453;-86
2022/03/19 02:39:52;;;;;;;25.35;14.18;;;9.70;53.00;;;;;;4991868;28;20432;-87
2022/03/19 02:42:20;;;;;;;19.27;13.82;;;9.50;53.90;;;;;;5013412;28;20125;-84
2022/03/19 02:44:46;;;;;;;18.83;13.77;;;9.60;54.10;;;;;;4984345;28;20042;-85
2022/03/19 02:47:12;;;;;;;19.10;14.20;;;9.50;53.10;;;;;;5004042;28;20113;-86
2022/03/19 02:49:38;;;;;;;18.35;14.52;;;9.60;52.80;;;;;;4995705;28;20047;-86
2022/03/19 02:52:04;;;;;;;17.23;13.63;;;9.50;53.10;;;;;;5004066;28;20503;-86
2022/03/19 02:54:31;;;;;;;18.58;13.63;;;9.60;52.90;;;;;;5013417;28;20165;-86
2022/03/19 02:56:58;;;;;;;22.52;16.17;;;9.60;52.90;;;;;;4997872;28;20034;-88
2022/03/19 02:59:26;;;;;;;21.70;14.95;;;9.50;52.20;;;;;;5015303;28;20042;-89
2022/03/19 03:01:59;;;;;;;18.33;14.18;;;9.50;53.50;;;;;;4997881;28;20455;-91
2022/03/19 03:04:26;;;;;;;18.73;14.85;;;9.50;53.10;;;;;;5009491;28;20155;-91
2022/03/19 03:06:55;;;;;;;17.58;14.73;;;9.50;53.40;;;;;;4997286;28;20039;-92
2022/03/19 03:09:23;;;;;;;18.52;15.80;;;9.60;53.20;;;;;;4997971;28;20033;-91
2022/03/19 03:11:49;;;;;;;18.38;13.95;;;9.50;53.50;;;;;;4999382;28;20042;-92
2022/03/19 03:14:15;;;;;;;20.75;14.65;;;9.40;53.40;;;;;;5010367;28;20025;-91
2022/03/19 03:16:42;;;;;;;21.48;15.52;;;9.40;54.40;;;;;;5003073;28;20035;-92
2022/03/19 03:19:11;;;;;;;20.02;14.38;;;9.50;54.20;;;;;;4988256;28;20489;-88
2022/03/19 03:21:39;;;;;;;19.40;14.52;;;9.50;52.70;;;;;;5014669;28;20034;-87
2022/03/19 03:24:05;;;;;;;17.77;14.10;;;9.60;53.40;;;;;;4994503;28;20375;-86
2022/03/19 03:26:31;;;;;;;18.85;14.20;;;9.70;53.40;;;;;;4995690;28;20046;-88
2022/03/19 03:28:58;;;;;;;22.33;15.48;;;9.60;53.80;;;;;;5010706;28;20030;-87
2022/03/19 03:31:24;;;;;;;22.58;14.05;;;9.50;53.30;;;;;;4996913;28;20132;-87
2022/03/19 03:33:50;;;;;;;18.77;14.18;;;9.60;52.50;;;;;;4997503;28;20030;-86
2022/03/19 03:36:15;;;;;;;20.73;13.82;;;9.60;53.30;;;;;;4992922;28;20045;-86
2022/03/19 03:38:41;;;;;;;19.38;15.13;;;9.70;53.10;;;;;;4991881;28;20517;-87
2022/03/19 03:41:07;;;;;;;23.45;16.48;;;9.70;53.00;;;;;;5002853;28;20045;-87
2022/03/19 03:43:33;;;;;;;20.45;14.50;;;9.60;52.90;;;;;;4982258;28;20044;-87
2022/03/19 03:45:59;;;;;;;20.10;16.00;;;9.60;53.50;;;;;;4997255;28;20045;-88
2022/03/19 03:48:25;;;;;;;22.65;17.02;;;9.50;53.10;;;;;;4989141;28;20393;-87
2022/03/19 03:50:54;;;;;;;16.55;13.85;;;9.50;53.40;;;;;;4993597;28;20042;-82
2022/03/19 03:53:22;;;;;;;18.55;13.95;;;9.50;53.00;;;;;;5001905;28;20048;-83
2022/03/19 03:55:48;;;;;;;19.83;16.20;;;9.60;52.90;;;;;;5006595;28;20486;-83
2022/03/19 03:58:14;;;;;;;18.83;13.80;;;9.60;52.50;;;;;;4987458;28;20034;-82
2022/03/19 04:00:40;;;;;;;18.77;13.50;;;9.60;52.80;;;;;;5003399;28;20052;-83
2022/03/19 04:03:06;;;;;;;21.48;16.35;;;9.50;52.70;;;;;;4993472;28;20085;-83
2022/03/19 04:05:35;;;;;;;23.52;16.77;;;9.50;53.20;;;;;;5008777;28;20065;-84
2022/03/19 04:08:02;;;;;;;15.82;12.70;;;9.50;52.60;;;;;;4984245;28;20069;-83
2022/03/19 04:10:28;;;;;;;18.95;14.43;;;9.50;53.10;;;;;;4987491;28;20045;-84
2022/03/19 04:12:54;;;;;;;20.55;16.08;;;9.40;53.50;;;;;;5012155;28;20046;-84
2022/03/19 04:15:20;;;;;;;20.90;15.63;;;9.30;53.80;;;;;;5003409;28;20144;-85
2022/03/19 04:17:46;;;;;;;20.67;15.43;;;9.30;52.90;;;;;;4994467;28;20490;-85
2022/03/19 04:20:13;;;;;;;21.10;14.98;;;9.30;53.80;;;;;;4980079;28;20399;-86
2022/03/19 04:22:42;;;;;;;20.95;14.75;;;9.30;53.60;;;;;;5007605;28;20486;-85
2022/03/19 04:25:11;;;;;;;28.10;16.20;;;9.20;54.10;;;;;;5003763;28;20042;-85
2022/03/19 04:27:38;;;;;;;18.25;14.25;;;9.30;53.90;;;;;;4988179;28;20041;-85
2022/03/19 04:30:05;;;;;;;18.55;14.00;;;9.30;54.50;;;;;;5001653;28;20426;-85
2022/03/19 04:32:31;;;;;;;17.42;13.30;;;9.40;53.80;;;;;;4980663;28;20093;-85
2022/03/19 04:34:57;;;;;;;22.52;16.95;;;9.50;53.10;;;;;;4996009;28;20037;-84
2022/03/19 04:37:23;;;;;;;18.98;14.88;;;9.60;53.10;;;;;;4988830;28;20383;-84
2022/03/19 04:39:48;;;;;;;19.77;14.55;;;9.50;53.40;;;;;;4993772;28;20066;-83
2022/03/19 04:42:14;;;;;;;20.52;14.57;;;9.50;53.20;;;;;;5015276;28;20466;-82
2022/03/19 04:44:40;;;;;;;32.17;18.13;;;9.60;53.90;;;;;;5008174;28;20045;-81
2022/03/19 04:47:06;;;;;;;21.92;17.25;;;9.40;52.90;;;;;;5005785;28;20046;-82
2022/03/19 04:49:32;;;;;;;24.25;17.63;;;9.20;53.40;;;;;;5012326;28;20181;-82
2022/03/19 04:51:58;;;;;;;23.67;16.90;;;9.10;54.00;;;;;;5006723;28;20042;-82
2022/03/19 04:54:24;;;;;;;22.90;17.63;;;8.90;54.40;;;;;;5010965;28;20034;-82
2022/03/19 04:56:49;;;;;;;23.13;17.50;;;8.90;54.50;;;;;;4990989;28;20038;-82
2022/03/19 04:59:15;;;;;;;27.23;18.45;;;8.90;54.70;;;;;;4987351;28;20487;-81
2022/03/19 05:01:41;;;;;;;24.75;17.52;;;8.80;55.00;;;;;;5011993;28;20039;-82
2022/03/19 05:04:07;;;;;;;23.15;17.98;;;8.70;55.30;;;;;;4993747;28;20037;-82
2022/03/19 05:06:33;;;;;;;26.33;18.80;;;8.70;55.30;;;;;;4988391;28;20638;-82
2022/03/19 05:12:00;;;;;;;23.95;18.45;;;8.60;55.70;;;;;;4916877;29;20036;-83
2022/03/19 05:14:26;;;;;;;24.92;19.00;;;8.60;56.90;;;;;;4970729;28;20589;-83
2022/03/19 05:16:52;;;;;;;27.05;16.27;;;8.60;56.40;;;;;;5008325;28;20502;-82
2022/03/19 05:19:17;;;;;;;25.20;18.67;;;8.60;57.40;;;;;;4989784;28;20111;-83
2022/03/19 05:21:43;;;;;;;24.90;17.85;;;8.70;56.80;;;;;;4975245;28;20122;-83
2022/03/19 05:24:09;;;;;;;24.05;16.67;;;8.60;56.50;;;;;;4993311;28;20037;-82
2022/03/19 05:26:36;;;;;;;24.65;16.40;;;8.70;56.70;;;;;;4994675;28;20462;-84
2022/03/19 05:29:01;;;;;;;25.08;19.30;;;8.70;55.90;;;;;;5012707;28;20037;-83
2022/03/19 05:31:27;;;;;;;22.10;15.43;;;8.80;55.70;;;;;;5011214;28;20505;-83
2022/03/19 05:36:37;;;;;;;24.25;15.35;;;8.90;55.90;;;;;;5007519;28;20169;-83
2022/03/19 05:39:04;;;;;;;23.17;17.10;;;9.00;56.10;;;;;;5015556;28;20506;-86
2022/03/19 05:41:30;;;;;;;24.60;17.92;;;8.90;56.00;;;;;;5008506;28;20046;-84
2022/03/19 05:43:55;;;;;;;26.80;17.88;;;8.90;56.00;;;;;;4998552;28;20092;-85
2022/03/19 05:46:21;;;;;;;25.23;18.30;;;9.00;55.50;;;;;;5006129;28;20117;-86
2022/03/19 05:48:47;;;;;;;25.05;19.35;;;8.80;55.90;;;;;;5011014;28;20042;-83
2022/03/19 05:51:13;;;;;;;25.58;18.23;;;8.80;55.30;;;;;;5006502;28;20383;-83
2022/03/19 05:53:41;;;;;;;27.50;19.50;;;8.80;55.50;;;;;;5008507;28;20041;-82
2022/03/19 05:56:06;;;;;;;31.50;19.83;;;8.80;56.40;;;;;;5003964;28;20042;-81
2022/03/19 05:58:32;;;;;;;25.15;18.45;;;8.70;55.60;;;;;;4992421;28;20048;-83
2022/03/19 06:00:57;;;;;;;21.70;17.05;;;8.80;56.10;;;;;;4994683;28;20046;-82
2022/03/19 06:03:23;;;;;;;29.80;20.30;;;8.80;56.40;;;;;;5001311;28;20045;-78
2022/03/19 06:05:49;;;;;;;23.45;18.63;;;8.60;55.60;;;;;;5008679;28;20169;-78
2022/03/19 06:08:14;;;;;;;26.20;19.77;;;8.60;56.30;;;;;;5001149;28;20042;-79
2022/03/19 06:10:40;;;;;;;27.52;19.13;;;8.50;56.50;;;;;;5000143;28;20047;-78
2022/03/19 06:13:06;;;;;;;32.60;19.75;;;8.40;57.00;;;;;;5011777;28;20038;-77
2022/03/19 06:15:31;;;;;;;26.50;20.05;;;8.40;56.50;;;;;;5004792;28;20418;-78
2022/03/19 06:17:57;;;;;;;28.48;19.38;;;8.40;57.10;;;;;;5009919;28;20045;-84
2022/03/19 06:20:23;;;;;;;28.13;19.52;;;8.30;57.30;;;;;;5012568;28;20422;-87
2022/03/19 06:22:49;;;;;;;28.50;19.50;;;8.20;57.30;;;;;;4992251;28;20484;-87
2022/03/19 06:25:16;;;;;;;24.63;17.70;;;8.10;57.70;;;;;;5002649;28;20030;-86
2022/03/19 06:27:42;;;;;;;20.45;14.40;;;8.20;57.70;;;;;;4998070;28;20042;-86
2022/03/19 06:30:08;;;;;;;25.17;17.67;;;8.40;58.20;;;;;;5004554;28;20030;-88
2022/03/19 06:32:38;;;;;;;29.88;15.50;;;8.50;58.60;;;;;;5001358;28;20045;-87
2022/03/19 06:35:04;;;;;;;21.83;15.93;;;8.70;59.00;;;;;;4989499;28;20030;-89
2022/03/19 06:37:31;;;;;;;20.65;14.52;;;8.80;57.30;;;;;;5015423;28;20859;-85
2022/03/19 06:40:00;;;;;;;21.73;15.90;;;9.00;57.90;;;;;;5011172;28;20497;-85
2022/03/19 06:42:26;;;;;;;26.23;16.15;;;9.10;58.20;;;;;;5016160;28;20052;-86
2022/03/19 06:44:52;;;;;;;21.05;16.25;;;9.20;58.20;;;;;;5013491;28;20034;-87
2022/03/19 06:47:18;;;;;;;22.65;15.30;;;9.20;57.30;;;;;;5008095;28;20042;-85
2022/03/19 06:49:44;;;;;;;31.10;16.58;;;9.20;57.10;;;;;;5011702;28;20038;-85
2022/03/19 06:52:10;;;;;;;23.35;16.80;;;9.30;56.60;;;;;;4990535;28;20044;-85
2022/03/19 06:54:36;;;;;;;22.02;15.48;;;9.30;56.50;;;;;;5012584;28;20085;-80
2022/03/19 06:57:01;;;;;;;24.83;18.20;;;9.40;57.30;;;;;;5009549;28;20042;-79
2022/03/19 06:59:27;;;;;;;30.73;17.85;;;9.50;55.40;;;;;;5009602;28;20509;-80
2022/03/19 07:01:53;;;;;;;25.02;17.92;;;9.50;56.10;;;;;;5007328;28;20038;-80
2022/03/19 07:04:19;;;;;;;25.67;18.02;;;9.40;54.80;;;;;;5005396;28;20041;-80
2022/03/19 07:06:44;;;;;;;19.38;14.90;;;9.50;55.50;;;;;;4985117;28;20073;-81
2022/03/19 07:09:10;;;;;;;24.65;17.23;;;9.50;54.60;;;;;;5002870;28;20528;-79
2022/03/19 07:11:36;;;;;;;20.92;14.93;;;9.60;55.80;;;;;;5001610;28;20037;-79
2022/03/19 07:14:03;;;;;;;25.77;16.88;;;9.80;56.00;;;;;;5005710;28;20034;-80
2022/03/19 07:16:29;;;;;;;20.00;15.48;;;9.90;55.20;;;;;;4986653;28;20053;-78
2022/03/19 07:18:55;;;;;;;21.67;16.38;;;9.90;54.30;;;;;;4989941;28;20038;-76
2022/03/19 07:21:22;;;;;;;21.08;15.63;;;10.00;54.20;;;;;;4987548;28;20038;-77
2022/03/19 07:23:48;;;;;;;20.30;15.00;;;10.10;54.30;;;;;;4983815;28;20057;-76
2022/03/19 07:26:13;;;;;;;19.95;14.20;;;10.10;54.90;;;;;;5002324;28;20030;-76
2022/03/19 07:28:40;;;;;;;18.33;14.52;;;10.20;54.90;;;;;;5003956;28;20046;-76
2022/03/19 07:31:07;;;;;;;20.40;16.15;;;10.40;55.60;;;;;;5013723;28;20494;-76
2022/03/19 07:33:36;;;;;;;18.88;14.27;;;10.40;54.20;;;;;;5013420;28;20049;-76
2022/03/19 07:36:05;;;;;;;22.58;17.58;;;10.50;53.50;;;;;;5013341;28;20533;-77
2022/03/19 07:38:31;;;;;;;20.00;15.30;;;10.60;54.00;;;;;;5013026;28;20084;-76
2022/03/19 07:43:42;;;;;;;20.80;15.15;;;10.60;53.60;;;;;;5013478;28;20409;-76
2022/03/19 07:46:08;;;;;;;22.13;15.77;;;10.70;53.60;;;;;;5013239;28;20538;-76
2022/03/19 07:48:34;;;;;;;21.23;15.38;;;10.90;53.20;;;;;;5013670;28;20040;-76
2022/03/19 07:51:00;;;;;;;19.20;14.57;;;11.00;54.00;;;;;;5013591;28;20042;-82
2022/03/19 07:53:25;;;;;;;18.73;14.32;;;11.00;54.40;;;;;;5009066;28;20089;-81
2022/03/19 07:55:53;;;;;;;18.85;14.30;;;11.20;53.90;;;;;;4995562;28;20448;-82
2022/03/19 07:58:19;;;;;;;16.67;13.18;;;11.30;52.70;;;;;;5011566;28;20061;-82
2022/03/19 08:00:44;;;;;;;21.70;14.85;;;11.40;52.40;;;;;;5014288;28;20080;-82
2022/03/19 08:03:10;;;;;;;16.30;13.48;;;11.40;52.40;;;;;;4996831;28;20452;-81
2022/03/19 08:05:36;;;;;;;17.30;14.07;;;11.50;52.10;;;;;;5014412;28;20117;-82
2022/03/19 08:08:05;;;;;;;16.80;12.60;;;11.60;52.20;;;;;;5014550;28;20042;-82
2022/03/19 08:10:31;;;;;;;18.00;14.70;;;11.70;52.20;;;;;;5014578;28;20068;-83
2022/03/19 08:13:06;;;;;;;17.88;13.90;;;11.80;51.00;;;;;;5014096;28;20084;-83
2022/03/19 08:15:32;;;;;;;20.88;14.88;;;11.90;51.20;;;;;;4995812;28;20066;-83
2022/03/19 08:17:59;;;;;;;20.83;14.07;;;12.10;50.90;;;;;;5012140;28;20042;-82
2022/03/19 08:20:26;;;;;;;22.15;16.45;;;12.20;52.00;;;;;;5018761;28;20042;-76
2022/03/19 08:22:52;;;;;;;17.38;14.27;;;12.30;51.10;;;;;;5017303;28;20053;-75
2022/03/19 08:25:17;;;;;;;21.88;16.55;;;12.40;50.30;;;;;;4999143;28;20061;-75
2022/03/19 08:27:43;;;;;;;18.45;14.05;;;12.50;50.10;;;;;;4999376;28;20034;-75
2022/03/19 08:30:09;;;;;;;18.83;14.35;;;12.50;49.90;;;;;;4999564;28;20038;-75
2022/03/19 08:32:35;;;;;;;19.05;14.68;;;12.60;48.50;;;;;;5016903;28;20366;-75
2022/03/19 08:35:00;;;;;;;16.08;12.75;;;12.70;48.20;;;;;;5016789;28;20564;-75
2022/03/19 08:37:27;;;;;;;20.13;12.35;;;12.80;48.60;;;;;;5016341;28;20047;-76
2022/03/19 08:42:38;;;;;;;15.32;12.90;;;12.90;47.80;;;;;;5016657;28;20449;-74
2022/03/19 08:45:05;;;;;;;15.15;12.38;;;13.10;48.10;;;;;;4998815;28;20053;-75
2022/03/19 08:47:31;;;;;;;22.58;14.07;;;13.10;46.90;;;;;;4996844;28;20046;-76
2022/03/19 08:49:57;;;;;;;21.33;13.77;;;13.20;46.10;;;;;;5003993;28;20043;-76
2022/03/19 08:52:23;;;;;;;16.92;12.10;;;13.30;45.70;;;;;;5011659;28;20033;-81
2022/03/19 08:54:48;;;;;;;21.02;12.25;;;13.40;49.20;;;;;;5018374;28;20060;-80
2022/03/19 08:57:14;;;;;;;17.25;13.00;;;13.50;52.50;;;;;;5021628;28;20470;-83
2022/03/19 08:59:40;;;;;;;16.30;12.57;;;13.70;46.00;;;;;;4992190;28;20030;-83
2022/03/19 09:02:06;;;;;;;18.60;13.40;;;13.80;45.80;;;;;;5008634;28;20390;-81
2022/03/19 09:04:34;;;;;;;17.77;12.50;;;13.90;45.60;;;;;;4997755;28;20038;-80
2022/03/19 09:07:00;;;;;;;22.17;13.95;;;14.00;46.00;;;;;;5003299;28;20038;-80
2022/03/19 09:09:25;;;;;;;22.95;13.65;;;14.10;45.30;;;;;;5013733;28;20042;-81
2022/03/19 09:11:51;;;;;;;23.65;15.10;;;14.20;45.40;;;;;;5008350;28;20463;-80
2022/03/19 09:14:18;;;;;;;18.13;13.68;;;14.20;44.90;;;;;;5004075;28;20443;-80
2022/03/19 09:16:44;;;;;;;24.60;13.75;;;14.30;45.30;;;;;;5005694;28;20049;-82
2022/03/19 09:19:10;;;;;;;18.77;13.70;;;14.40;44.70;;;;;;5004215;28;20042;-78
2022/03/19 09:21:36;;;;;;;15.30;12.68;;;14.50;44.40;;;;;;5009968;28;21298;-78
2022/03/19 09:24:04;;;;;;;15.20;12.63;;;14.60;43.80;;;;;;5009424;28;20030;-77
2022/03/19 09:26:30;;;;;;;16.27;12.70;;;14.70;43.90;;;;;;4995502;28;20049;-78
2022/03/19 09:28:55;;;;;;;18.55;14.30;;;14.80;43.80;;;;;;5004842;28;20045;-78
2022/03/19 09:31:21;;;;;;;17.02;12.80;;;14.90;42.30;;;;;;4990331;28;20494;-78
2022/03/19 09:33:48;;;;;;;16.80;11.93;;;15.00;41.50;;;;;;4989526;28;20040;-77
2022/03/19 09:36:14;;;;;;;16.25;12.02;;;15.10;42.30;;;;;;4991836;28;20038;-79
2022/03/19 09:38:41;;;;;;;15.50;11.50;;;15.20;41.90;;;;;;5005543;28;20049;-80
2022/03/19 09:41:08;;;;;;;13.90;10.85;;;15.40;41.30;;;;;;5001759;28;20430;-77
2022/03/19 09:43:34;;;;;;;14.68;11.57;;;15.50;41.00;;;;;;4990600;28;20490;-77
2022/03/19 09:46:02;;;;;;;16.50;11.30;;;15.60;38.80;;;;;;5010584;28;20101;-77
2022/03/19 09:48:28;;;;;;;21.52;12.98;;;15.70;38.60;;;;;;4984597;28;20045;-78
2022/03/19 09:50:56;;;;;;;15.10;12.02;;;15.70;37.60;;;;;;5000361;28;20045;-78
2022/03/19 09:53:23;;;;;;;17.27;12.02;;;15.60;38.70;;;;;;5002522;28;20042;-78
2022/03/19 09:55:50;;;;;;;17.65;11.20;;;15.70;38.30;;;;;;4997731;28;20050;-79
2022/03/19 09:58:16;;;;;;;18.02;12.10;;;15.80;38.20;;;;;;4996661;28;20037;-79
2022/03/19 10:00:43;;;;;;;14.43;11.75;;;15.90;38.10;;;;;;4987287;28;20050;-78
2022/03/19 11:20:46;;;;;;;12.73;9.23;;;18.60;31.10;;;;;;5277108;23;20052;-82
2022/03/19 11:23:14;;;;;;;12.02;10.02;;;18.60;32.10;;;;;;5008159;28;20036;-81
2022/03/19 11:25:50;;;;;;;14.93;9.52;;;18.70;31.30;;;;;;5012079;28;20100;-82
2022/03/19 11:28:17;;;;;;;12.07;9.10;;;18.80;30.00;;;;;;4987340;28;20026;-75
2022/03/19 11:31:03;;;;;;;16.80;9.10;;;18.90;30.00;;;;;;4987832;28;20034;-75
2022/03/19 11:33:33;;;;;;;11.95;9.02;;;19.10;28.80;;;;;;5006294;28;20026;-81
2022/03/19 11:35:59;;;;;;;11.73;9.00;;;19.20;28.20;;;;;;5000630;28;20466;-79
2022/03/19 11:38:25;;;;;;;14.13;9.55;;;19.20;28.80;;;;;;5010039;28;20034;-79
2022/03/19 11:40:56;;;;;;;10.75;8.13;;;19.40;28.60;;;;;;5014407;28;20525;-79
2022/03/19 11:43:25;;;;;;;13.80;9.60;;;19.60;29.50;;;;;;5003468;28;20085;-80
2022/03/19 11:46:02;;;;;;;18.83;9.68;;;19.70;29.50;;;;;;5011646;28;20474;-81
2022/03/19 11:48:34;;;;;;;15.27;9.95;;;20.00;28.90;;;;;;4996084;28;20105;-80
2022/03/19 11:51:24;;;;;;;12.70;9.70;;;20.30;29.30;;;;;;4991994;28;20033;-81
2022/03/19 11:53:51;;;;;;;11.27;8.93;;;20.40;29.60;;;;;;5007245;28;20030;-80
2022/03/19 11:56:19;;;;;;;14.85;9.45;;;20.70;30.40;;;;;;5014475;28;20121;-80
2022/03/19 11:58:46;;;;;;;9.48;7.85;;;20.80;26.80;;;;;;4995163;28;20074;-79
2022/03/19 12:01:13;;;;;;;13.02;9.18;;;21.00;28.30;;;;;;5002050;28;20030;-79
2022/03/19 12:04:08;;;;;;;11.93;8.80;;;20.90;27.40;;;;;;5006109;28;20129;-81
2022/03/19 12:06:38;;;;;;;12.18;8.55;;;21.20;27.80;;;;;;5001090;28;20034;-82
2022/03/19 12:09:04;;;;;;;14.45;9.82;;;21.60;27.30;;;;;;4996735;28;20050;-79
2022/03/19 12:11:32;;;;;;;12.88;9.05;;;21.30;26.50;;;;;;4994427;28;20402;-79
2022/03/19 12:13:59;;;;;;;14.75;8.63;;;21.30;26.20;;;;;;4993709;28;20405;-79
2022/03/19 12:16:41;;;;;;;11.38;8.50;;;21.50;26.70;;;;;;4997249;28;20089;-79
2022/03/19 12:19:08;;;;;;;13.82;9.65;;;21.70;26.30;;;;;;5008589;28;20038;-80
2022/03/19 12:21:36;;;;;;;11.98;9.63;;;21.70;26.60;;;;;;4998658;28;20065;-76
2022/03/19 12:24:15;;;;;;;15.43;9.60;;;22.20;28.00;;;;;;4996245;28;20054;-76
2022/03/19 12:26:46;;;;;;;13.43;8.90;;;21.70;27.80;;;;;;5009088;28;20413;-76
2022/03/19 12:29:14;;;;;;;11.88;9.15;;;21.80;28.60;;;;;;5011376;28;20040;-76
2022/03/19 12:31:48;;;;;;;10.23;8.50;;;22.30;28.40;;;;;;5005073;28;20053;-76
2022/03/19 12:34:22;;;;;;;10.57;8.75;;;22.50;27.20;;;;;;5006846;28;20032;-76
2022/03/19 12:36:52;;;;;;;11.00;8.23;;;22.40;26.80;;;;;;5000381;28;20039;-76
2022/03/19 12:39:18;;;;;;;11.70;8.20;;;22.60;26.70;;;;;;4979987;28;20065;-76
2022/03/19 12:41:45;;;;;;;10.63;8.13;;;22.50;25.50;;;;;;5008779;28;20047;-83
2022/03/19 12:44:22;;;;;;;11.02;8.68;;;22.50;26.40;;;;;;5004307;28;20034;-83
2022/03/19 12:47:01;;;;;;;13.15;8.10;;;22.00;26.10;;;;;;5004056;28;20042;-83
2022/03/19 12:49:28;;;;;;;15.13;9.63;;;22.10;26.50;;;;;;5001690;28;20046;-83
2022/03/19 12:51:54;;;;;;;11.48;8.20;;;22.10;25.70;;;;;;5011205;28;20089;-84
2022/03/19 12:54:25;;;;;;;10.63;8.48;;;22.10;25.60;;;;;;5007749;28;20065;-84
2022/03/19 12:56:52;;;;;;;15.70;8.13;;;22.20;25.80;;;;;;4997305;28;20040;-85
2022/03/19 12:59:23;;;;;;;12.38;8.07;;;22.30;25.90;;;;;;4985516;28;20038;-86
2022/03/19 13:01:50;;;;;;;11.18;8.95;;;22.10;24.60;;;;;;5013252;28;20041;-86
2022/03/19 13:04:27;;;;;;;10.02;8.63;;;21.80;25.70;;;;;;5013251;28;20467;-82
2022/03/19 13:06:54;;;;;;;9.57;8.02;;;21.40;25.20;;;;;;5013325;28;20094;-82
2022/03/19 13:09:35;;;;;;;11.43;8.68;;;21.30;25.40;;;;;;4986231;28;20038;-82
2022/03/19 13:12:03;;;;;;;10.23;7.47;;;21.20;25.70;;;;;;5008479;28;20031;-82
2022/03/19 13:14:30;;;;;;;247.02;29.40;;;21.00;25.10;;;;;;5004408;28;20042;-80
2022/03/19 13:16:57;;;;;;;17.13;9.00;;;20.70;25.70;;;;;;5008824;28;20127;-81
2022/03/19 13:19:33;;;;;;;9.73;8.13;;;20.40;27.40;;;;;;5004968;28;20037;-86
2022/03/19 13:22:00;;;;;;;11.02;8.13;;;19.90;27.70;;;;;;4990355;28;20541;-87
2022/03/19 13:24:27;;;;;;;11.52;8.52;;;19.20;27.10;;;;;;5007633;28;20046;-81
2022/03/19 13:26:54;;;;;;;11.43;8.60;;;18.80;28.10;;;;;;5005383;28;20042;-80
2022/03/19 13:29:32;;;;;;;10.70;8.30;;;18.70;29.10;;;;;;5006920;28;20482;-87
2022/03/19 13:32:01;;;;;;;10.38;7.93;;;18.40;29.00;;;;;;4993155;28;20077;-81
2022/03/19 13:34:37;;;;;;;9.45;8.35;;;18.20;29.90;;;;;;5002659;28;20034;-81
2022/03/19 13:37:15;;;;;;;8.93;7.80;;;18.10;31.20;;;;;;4985433;28;20031;-80
2022/03/19 13:39:46;;;;;;;9.80;8.40;;;17.80;29.90;;;;;;4986708;28;20053;-81
2022/03/19 13:42:14;;;;;;;139.90;115.78;;;17.50;29.40;;;;;;5001321;28;20109;-80
2022/03/19 13:44:45;;;;;;;14.18;11.18;;;17.10;32.20;;;;;;4987583;28;20046;-82
2022/03/19 13:47:18;;;;;;;13.68;8.60;;;17.10;34.20;;;;;;4986019;28;20041;-81
2022/03/19 13:49:58;;;;;;;11.57;8.00;;;17.00;31.70;;;;;;5006018;28;20121;-81
2022/03/19 13:52:34;;;;;;;10.07;8.23;;;16.90;30.00;;;;;;4992084;28;20375;-80
2022/03/19 13:55:05;;;;;;;11.35;7.35;;;16.80;30.90;;;;;;5010947;28;20133;-80
2022/03/19 13:57:36;;;;;;;10.65;8.15;;;16.70;28.20;;;;;;5014513;28;20482;-81
2022/03/19 14:00:17;;;;;;;13.68;7.90;;;16.50;28.10;;;;;;5016013;28;20706;-82
2022/03/19 14:02:53;;;;;;;13.65;8.43;;;16.40;26.50;;;;;;4991652;28;20069;-81
2022/03/19 14:05:36;;;;;;;11.57;8.00;;;16.20;27.70;;;;;;5005658;28;20482;-82
2022/03/19 14:08:31;;;;;;;9.60;7.40;;;16.20;28.30;;;;;;5012693;28;20022;-80